Bacobi, Arizona
Current Conditions -  °F | °C
As of 4:56 AM on Sunday 23 Nov 2014 (Local Time) from KINW Reporting Station
Clear Clear  
Wind Chill: 35°   Ceiling: Unl
Heat Index: 42°   Visibility: 10mi
Dew Point: 24°   Wind: 14mph
Humidity: 49%   Direction: 240°WSW
Pressure: 29.93"   Gusts: NA
Location:  36.2405°N, 110.59°W
Report Text: KINW 231156Z AUTO 24012KT 10SM CLR 06/M04 A2993 RMK AO2 SLP106 T00561044 10089 20056 53004
Loading
Personal Weather Stations






























Interactive Weather Map New forecast layout! Learn more

10-Day Weather Forecast

Advertisements
Track Severe Weather on mobile